createdAt,value
2024-01-06T00:01:18.512Z,96832.58
2024-01-06T00:03:46.564Z,96825.66
2024-01-06T00:06:15.872Z,96826.30
2024-01-06T00:08:43.937Z,96821.69
2024-01-06T00:11:11.898Z,96825.29
2024-01-06T00:13:39.851Z,96827.88
2024-01-06T00:16:07.913Z,96827.17
2024-01-06T00:18:35.984Z,96823.69
2024-01-06T00:21:04.126Z,96825.13
2024-01-06T00:23:32.000Z,96826.22
2024-01-06T00:25:59.912Z,96821.80
2024-01-06T00:28:27.852Z,96817.29
2024-01-06T00:30:55.895Z,96808.05
2024-01-06T00:33:23.806Z,96800.55
2024-01-06T00:35:51.715Z,96801.02
2024-01-06T00:38:21.759Z,96792.45
2024-01-06T00:40:49.613Z,96787.33
2024-01-06T00:43:17.692Z,96795.45
2024-01-06T00:45:45.615Z,96792.21
2024-01-06T00:48:13.529Z,96797.84
2024-01-06T00:50:41.535Z,96790.14
2024-01-06T00:53:09.521Z,96799.08
2024-01-06T00:55:37.352Z,96796.34
2024-01-06T00:58:05.302Z,96802.42
2024-01-06T01:00:33.252Z,96801.83
2024-01-06T01:03:01.097Z,96801.47
2024-01-06T01:05:29.288Z,96796.81
2024-01-06T01:07:57.197Z,96799.31
2024-01-06T01:10:25.129Z,96791.16
2024-01-06T01:12:53.129Z,96800.20
2024-01-06T01:15:20.974Z,96805.14
2024-01-06T01:17:48.956Z,96808.90
2024-01-06T01:20:17.045Z,96810.77
2024-01-06T01:22:44.941Z,96805.30
2024-01-06T01:25:14.213Z,96799.39
2024-01-06T01:27:42.199Z,96797.61
2024-01-06T01:30:11.008Z,96803.15
2024-01-06T01:32:39.180Z,96802.70
2024-01-06T01:35:07.499Z,96807.56
2024-01-06T01:37:35.441Z,96814.46
2024-01-06T01:40:03.541Z,96816.98
2024-01-06T01:42:31.790Z,96813.80
2024-01-06T01:44:59.818Z,96814.93
2024-01-06T01:47:28.213Z,96820.88
2024-01-06T01:49:57.694Z,96817.17
2024-01-06T01:52:25.785Z,96813.88
2024-01-06T01:54:54.042Z,96810.44
2024-01-06T01:57:24.409Z,96811.29
2024-01-06T01:59:54.394Z,96806.45
2024-01-06T02:02:23.583Z,96807.52
2024-01-06T02:04:51.740Z,96802.38
2024-01-06T02:07:19.836Z,96799.94
2024-01-06T02:09:47.782Z,96802.29
2024-01-06T02:12:15.735Z,96800.06
2024-01-06T02:14:44.566Z,96793.54
2024-01-06T02:17:12.489Z,96799.05
2024-01-06T02:19:40.575Z,96793.38
2024-01-06T02:22:08.583Z,96796.71
2024-01-06T02:24:36.503Z,96797.40
2024-01-06T02:27:04.973Z,96800.80
2024-01-06T02:29:32.882Z,96800.92
2024-01-06T02:32:00.859Z,96805.54
2024-01-06T02:34:28.867Z,96805.36
2024-01-06T02:36:56.802Z,96806.64
2024-01-06T02:39:25.276Z,96801.84
2024-01-06T02:42:18.513Z,96803.16
2024-01-06T02:44:46.903Z,96800.41
2024-01-06T02:47:14.911Z,96794.21
2024-01-06T02:49:42.889Z,96787.58
2024-01-06T02:52:10.923Z,96784.51
2024-01-06T02:54:39.041Z,96777.13
2024-01-06T02:57:06.935Z,96773.09
2024-01-06T02:59:35.995Z,96774.15
2024-01-06T03:02:04.062Z,96778.97
2024-01-06T03:04:32.027Z,96781.61
2024-01-06T03:07:00.005Z,96783.46
2024-01-06T03:09:27.909Z,96789.71
2024-01-06T03:11:55.776Z,96791.39
2024-01-06T03:14:23.643Z,96789.52
2024-01-06T03:16:51.557Z,96782.35
2024-01-06T03:19:19.674Z,96777.63
2024-01-06T03:21:47.782Z,96779.87
2024-01-06T03:24:15.678Z,96772.73
2024-01-06T03:26:43.538Z,96769.02
2024-01-06T03:29:11.394Z,96765.66
2024-01-06T03:31:39.873Z,96769.14
2024-01-06T03:34:09.979Z,96772.66
2024-01-06T03:36:39.069Z,96766.25
2024-01-06T03:39:07.982Z,96761.91
2024-01-06T03:41:35.878Z,96765.35
2024-01-06T03:44:03.894Z,96763.77
2024-01-06T03:46:31.795Z,96765.11
2024-01-06T03:48:59.704Z,96769.38
2024-01-06T03:51:27.791Z,96776.85
2024-01-06T03:53:55.663Z,96776.58
2024-01-06T03:56:23.673Z,96779.43
2024-01-06T03:58:51.589Z,96778.24
2024-01-06T04:01:19.533Z,96773.64
2024-01-06T04:03:47.502Z,96769.89
2024-01-06T04:06:15.453Z,96768.15
2024-01-06T04:08:43.362Z,96765.45
2024-01-06T04:11:11.261Z,96763.81
2024-01-06T04:13:44.037Z,96766.52
2024-01-06T04:16:11.912Z,96768.65
2024-01-06T04:18:39.844Z,96767.73
2024-01-06T04:21:07.758Z,96773.95
2024-01-06T04:23:36.084Z,96775.02
2024-01-06T04:26:06.128Z,96774.55
2024-01-06T04:28:34.046Z,96780.61
2024-01-06T04:31:01.964Z,96783.10
2024-01-06T04:33:30.156Z,96785.39
2024-01-06T04:35:59.216Z,96781.58
2024-01-06T04:38:27.108Z,96781.69
2024-01-06T04:40:55.144Z,96786.02
2024-01-06T04:43:23.019Z,96784.87
2024-01-06T04:45:52.147Z,96781.58
2024-01-06T04:48:20.201Z,96789.55
2024-01-06T04:50:48.135Z,96791.73
2024-01-06T04:53:16.125Z,96796.70
2024-01-06T04:55:44.031Z,96799.25
2024-01-06T04:58:11.860Z,96800.09
2024-01-06T05:00:39.795Z,96793.84
2024-01-06T05:03:07.746Z,96796.69
2024-01-06T05:05:35.770Z,96800.29
2024-01-06T05:08:04.426Z,96798.62
2024-01-06T05:10:32.273Z,96801.68
2024-01-06T05:13:00.088Z,96804.66
2024-01-06T05:15:28.173Z,96811.45
2024-01-06T05:17:56.689Z,96809.23
2024-01-06T05:20:24.731Z,96813.90
2024-01-06T05:22:52.606Z,96812.15
2024-01-06T05:25:20.477Z,96810.40
2024-01-06T05:27:48.514Z,96806.81
2024-01-06T05:30:16.929Z,96810.95
2024-01-06T05:32:45.383Z,96811.49
2024-01-06T05:35:13.317Z,96811.60
2024-01-06T05:37:41.764Z,96813.19
2024-01-06T05:40:10.483Z,96816.22
2024-01-06T05:42:38.395Z,96813.78
2024-01-06T05:45:06.848Z,96813.67
2024-01-06T05:47:34.834Z,96815.64
2024-01-06T05:50:02.776Z,96814.36
2024-01-06T05:52:30.700Z,96813.09
2024-01-06T05:54:59.790Z,96814.64
2024-01-06T05:57:27.794Z,96808.90
2024-01-06T05:59:55.698Z,96808.73
2024-01-06T06:02:23.637Z,96807.67
2024-01-06T06:04:51.638Z,96805.45
2024-01-06T06:07:20.199Z,96808.84
2024-01-06T06:09:49.161Z,96813.98
2024-01-06T06:12:17.301Z,96805.08
2024-01-06T06:14:45.244Z,96810.66
2024-01-06T06:17:13.090Z,96812.40
2024-01-06T06:19:41.108Z,96815.05
2024-01-06T06:22:09.079Z,96820.36
2024-01-06T06:24:36.950Z,96817.88
2024-01-06T06:27:05.082Z,96816.80
2024-01-06T06:29:32.944Z,96817.54
2024-01-06T06:32:00.849Z,96818.39
2024-01-06T06:34:28.934Z,96827.16
2024-01-06T06:36:56.961Z,96827.83
2024-01-06T06:39:24.944Z,96830.33
2024-01-06T06:41:52.839Z,96837.19
2024-01-06T06:44:21.431Z,96841.34
2024-01-06T06:46:49.252Z,96839.36
2024-01-06T06:49:17.253Z,96835.81
2024-01-06T06:51:48.820Z,96839.79
2024-01-06T06:54:17.420Z,96842.71
2024-01-06T06:56:45.888Z,96842.29
2024-01-06T06:59:13.786Z,96841.53
2024-01-06T07:01:41.695Z,96840.58
2024-01-06T07:04:09.602Z,96847.64
2024-01-06T07:06:37.545Z,96845.88
2024-01-06T07:09:06.326Z,96848.90
2024-01-06T07:11:34.489Z,96848.95
2024-01-06T07:14:02.447Z,96840.19
2024-01-06T07:16:30.802Z,96841.08
2024-01-06T07:18:58.819Z,96835.19
2024-01-06T07:21:26.827Z,96840.84
2024-01-06T07:23:54.704Z,96844.38
2024-01-06T07:26:22.562Z,96845.75
2024-01-06T07:28:50.510Z,96839.98
2024-01-06T07:31:19.006Z,96842.72
2024-01-06T07:33:47.043Z,96847.56
2024-01-06T07:36:15.048Z,96846.55
2024-01-06T07:38:43.083Z,96852.63
2024-01-06T07:41:11.019Z,96849.49
2024-01-06T07:43:38.890Z,96847.05
2024-01-06T07:46:08.347Z,96844.60
2024-01-06T07:48:37.451Z,96840.66
2024-01-06T07:51:05.429Z,96842.74
2024-01-06T07:53:34.539Z,96850.59
2024-01-06T07:56:02.461Z,96852.13
2024-01-06T07:58:30.481Z,96853.97
2024-01-06T08:00:58.476Z,96859.98
2024-01-06T08:03:26.616Z,96862.58
2024-01-06T08:05:55.609Z,96861.91
2024-01-06T08:08:23.612Z,96862.39
2024-01-06T08:10:51.554Z,96858.92
2024-01-06T08:13:19.439Z,96863.91
2024-01-06T08:15:47.400Z,96866.20
2024-01-06T08:18:15.853Z,96868.48
2024-01-06T08:20:43.955Z,96873.11
2024-01-06T08:23:11.908Z,96881.19
2024-01-06T08:25:39.789Z,96881.20
2024-01-06T08:28:07.654Z,96890.58
2024-01-06T08:30:35.670Z,96889.45
2024-01-06T08:33:04.104Z,96890.34
2024-01-06T08:35:32.934Z,96898.19
2024-01-06T08:38:04.692Z,96902.78
2024-01-06T08:40:32.618Z,96903.16
2024-01-06T08:43:00.588Z,96903.73
2024-01-06T08:45:29.003Z,96903.95
2024-01-06T08:47:58.174Z,96905.90
2024-01-06T08:50:26.113Z,96903.63
2024-01-06T08:52:53.965Z,96903.40
2024-01-06T08:55:21.975Z,96895.80
2024-01-06T08:57:49.988Z,96892.94
2024-01-06T09:00:18.763Z,96895.54
2024-01-06T09:02:47.088Z,96899.75
2024-01-06T09:05:15.184Z,96902.90
2024-01-06T09:07:43.093Z,96902.65
2024-01-06T09:10:11.039Z,96906.99
2024-01-06T09:12:39.375Z,96907.54
2024-01-06T09:15:08.181Z,96902.64
2024-01-06T09:17:36.213Z,96902.15
2024-01-06T09:20:04.657Z,96900.33
2024-01-06T09:22:33.654Z,96897.38
2024-01-06T09:25:01.950Z,96895.88
2024-01-06T09:27:29.962Z,96896.92
2024-01-06T09:29:57.838Z,96899.52
2024-01-06T09:32:25.767Z,96900.05
2024-01-06T09:34:53.796Z,96903.14
2024-01-06T09:37:21.975Z,96901.91
2024-01-06T09:39:50.579Z,96900.76
2024-01-06T09:42:18.544Z,96896.30
2024-01-06T09:44:46.669Z,96895.60
2024-01-06T09:47:17.781Z,96894.27
2024-01-06T09:49:52.232Z,96890.41
2024-01-06T09:52:24.216Z,96891.23
2024-01-06T09:54:54.979Z,96894.45
2024-01-06T09:57:24.951Z,96892.58
2024-01-06T09:59:53.851Z,96894.65
2024-01-06T10:02:24.342Z,96895.09
2024-01-06T10:04:52.712Z,96895.84
2024-01-06T10:07:21.009Z,96898.00
2024-01-06T10:09:48.952Z,96894.56
2024-01-06T10:12:17.167Z,96893.38
2024-01-06T10:14:45.270Z,96893.83
2024-01-06T10:17:14.007Z,96893.86
2024-01-06T10:19:41.987Z,96900.45
2024-01-06T10:22:10.490Z,96896.23
2024-01-06T10:24:39.248Z,96896.84
2024-01-06T10:27:07.551Z,96898.27
2024-01-06T10:29:35.704Z,96896.52
2024-01-06T10:32:04.261Z,96898.36
2024-01-06T10:34:33.960Z,96898.30
2024-01-06T10:37:02.379Z,96894.59
2024-01-06T10:39:30.990Z,96898.60
2024-01-06T10:41:59.615Z,96892.00
2024-01-06T10:44:30.222Z,96894.59
2024-01-06T10:46:59.948Z,96897.52
2024-01-06T10:49:28.405Z,96894.36
2024-01-06T10:51:57.761Z,96894.44
2024-01-06T10:54:26.075Z,96889.73
2024-01-06T10:56:55.604Z,96892.77
2024-01-06T10:59:26.148Z,96892.63
2024-01-06T11:01:55.302Z,96891.57
2024-01-06T11:04:24.605Z,96894.31
2024-01-06T11:06:52.744Z,96886.36
2024-01-06T11:09:20.650Z,96884.23
2024-01-06T11:11:49.985Z,96881.08
2024-01-06T11:14:34.292Z,96890.04
2024-01-06T11:17:02.175Z,96885.98
2024-01-06T11:19:36.537Z,96882.61
2024-01-06T11:22:25.663Z,96884.11
2024-01-06T11:24:57.665Z,96882.05
2024-01-06T11:27:30.425Z,96885.14
2024-01-06T11:30:07.104Z,96884.24
2024-01-06T11:32:40.276Z,96881.63
2024-01-06T11:35:13.753Z,96875.92
2024-01-06T11:37:41.616Z,96878.10
2024-01-06T11:40:26.440Z,96880.06
2024-01-06T11:43:03.431Z,96873.73
2024-01-06T11:45:31.630Z,96869.77
2024-01-06T11:48:03.012Z,96868.53
2024-01-06T11:50:37.090Z,96862.77
2024-01-06T11:53:07.176Z,96863.94
2024-01-06T11:55:36.189Z,96860.98
2024-01-06T11:58:05.346Z,96865.50
2024-01-06T12:00:41.850Z,96863.04
2024-01-06T12:03:10.882Z,96859.86
2024-01-06T12:05:39.468Z,96860.67
2024-01-06T12:08:10.950Z,96864.20
2024-01-06T12:10:38.944Z,96862.92
2024-01-06T12:13:11.482Z,96866.50
2024-01-06T12:15:41.500Z,96868.16
2024-01-06T12:18:10.086Z,96867.02
2024-01-06T12:20:38.110Z,96866.84
2024-01-06T12:23:07.694Z,96871.63
2024-01-06T12:25:40.291Z,96872.38
2024-01-06T12:28:09.504Z,96873.55
2024-01-06T12:30:39.938Z,96876.56
2024-01-06T12:33:08.156Z,96881.05
2024-01-06T12:35:36.445Z,96876.77
2024-01-06T12:38:09.085Z,96873.89
2024-01-06T12:40:38.683Z,96877.70
2024-01-06T12:43:07.366Z,96885.10
2024-01-06T12:45:35.697Z,96888.59
2024-01-06T12:48:04.131Z,96892.59
2024-01-06T12:50:32.252Z,96895.48
2024-01-06T12:53:00.130Z,96898.25
2024-01-06T12:55:28.025Z,96899.13
2024-01-06T12:57:56.030Z,96895.94
2024-01-06T13:00:24.052Z,96897.79
2024-01-06T13:02:52.140Z,96899.70
2024-01-06T13:05:21.244Z,96899.77
2024-01-06T13:07:50.155Z,96901.07
2024-01-06T13:10:18.564Z,96902.27
2024-01-06T13:12:46.528Z,96904.24
2024-01-06T13:15:14.946Z,96906.58
2024-01-06T13:17:43.086Z,96905.56
2024-01-06T13:20:11.432Z,96904.66
2024-01-06T13:22:41.808Z,96909.16
2024-01-06T13:25:10.686Z,96909.45
2024-01-06T13:27:39.298Z,96914.16
2024-01-06T13:30:07.949Z,96911.38
2024-01-06T13:32:40.072Z,96912.55
2024-01-06T13:35:08.697Z,96915.20
2024-01-06T13:37:36.718Z,96913.72
2024-01-06T13:40:05.181Z,96917.57
2024-01-06T13:42:33.156Z,96915.52
2024-01-06T13:45:04.554Z,96915.19
2024-01-06T13:47:32.609Z,96915.10
2024-01-06T13:50:00.688Z,96918.31
2024-01-06T13:52:28.762Z,96918.37
2024-01-06T13:54:56.602Z,96921.30
2024-01-06T13:57:24.988Z,96920.05
2024-01-06T13:59:52.921Z,96921.44
2024-01-06T14:02:20.854Z,96927.05
2024-01-06T14:04:49.316Z,96927.14
2024-01-06T14:07:20.431Z,96930.11
2024-01-06T14:09:48.426Z,96933.46
2024-01-06T14:12:16.440Z,96939.83
2024-01-06T14:14:44.472Z,96942.89
2024-01-06T14:17:12.731Z,96947.47
2024-01-06T14:19:42.399Z,96951.73
2024-01-06T14:22:11.323Z,96953.96
2024-01-06T14:24:39.427Z,96957.82
2024-01-06T14:27:07.344Z,96961.85
2024-01-06T14:29:36.116Z,96962.98
2024-01-06T14:32:04.182Z,96965.23
2024-01-06T14:34:32.211Z,96964.06
2024-01-06T14:37:01.560Z,96964.44
2024-01-06T14:39:29.608Z,96965.70
2024-01-06T14:41:57.497Z,96971.33
2024-01-06T14:44:28.381Z,96973.00
2024-01-06T14:46:56.317Z,96976.69
2024-01-06T14:49:25.336Z,96976.88
2024-01-06T14:51:53.502Z,96979.25
2024-01-06T14:54:21.460Z,96981.48
2024-01-06T14:56:49.427Z,96985.08
2024-01-06T14:59:20.036Z,96986.10
2024-01-06T15:01:49.134Z,96990.52
2024-01-06T15:04:19.869Z,96994.47
2024-01-06T15:06:48.527Z,96996.12
2024-01-06T15:09:18.233Z,97002.09
2024-01-06T15:11:46.399Z,97001.26
2024-01-06T15:14:15.216Z,97002.39
2024-01-06T15:16:43.273Z,96999.85
2024-01-06T15:19:12.937Z,97005.06
2024-01-06T15:21:40.968Z,96998.84
2024-01-06T15:24:08.966Z,97001.31
2024-01-06T15:26:36.877Z,97000.20
2024-01-06T15:29:04.777Z,97008.66
2024-01-06T15:31:32.715Z,97009.83
2024-01-06T15:34:01.054Z,97009.15
2024-01-06T15:36:29.214Z,97008.66
2024-01-06T15:38:57.305Z,97003.55
2024-01-06T15:41:25.237Z,97006.44
2024-01-06T15:43:53.157Z,97005.10
2024-01-06T15:46:21.979Z,97002.50
2024-01-06T15:48:50.160Z,97003.09
2024-01-06T15:51:18.455Z,97004.24
2024-01-06T15:53:46.502Z,97003.84
2024-01-06T15:56:14.367Z,97005.86
2024-01-06T15:58:42.394Z,97010.34
2024-01-06T16:01:10.610Z,97009.48
2024-01-06T16:03:39.030Z,97011.67
2024-01-06T16:06:07.381Z,97013.70
2024-01-06T16:08:35.924Z,97014.50
2024-01-06T16:11:03.901Z,97014.19
2024-01-06T16:13:31.815Z,97016.27
2024-01-06T16:15:59.771Z,97015.30
2024-01-06T16:18:30.245Z,97018.71
2024-01-06T16:21:00.019Z,97013.86
2024-01-06T16:23:28.170Z,97017.10
2024-01-06T16:25:59.879Z,97017.95
2024-01-06T16:28:28.142Z,97020.08
2024-01-06T16:30:56.209Z,97020.18
2024-01-06T16:33:25.470Z,97020.81
2024-01-06T16:35:53.417Z,97019.16
2024-01-06T16:38:21.396Z,97018.56
2024-01-06T16:40:49.299Z,97018.57
2024-01-06T16:43:17.285Z,97016.98
2024-01-06T16:45:45.857Z,97019.33
2024-01-06T16:48:14.040Z,97019.05
2024-01-06T16:50:44.120Z,97025.11
2024-01-06T16:53:14.235Z,97023.47
2024-01-06T16:55:42.086Z,97025.00
2024-01-06T16:58:10.018Z,97024.25
2024-01-06T17:00:38.032Z,97028.50
2024-01-06T17:03:06.236Z,97030.95
2024-01-06T17:05:34.225Z,97033.55
2024-01-06T17:08:02.135Z,97037.95
2024-01-06T17:10:30.037Z,97043.41
2024-01-06T17:12:58.010Z,97042.61
2024-01-06T17:15:28.217Z,97049.14
2024-01-06T17:17:56.248Z,97043.35
2024-01-06T17:20:24.616Z,97047.08
2024-01-06T17:22:53.107Z,97051.60
2024-01-06T17:25:21.380Z,97051.27
2024-01-06T17:27:49.414Z,97055.30
2024-01-06T17:30:18.838Z,97057.86
2024-01-06T17:32:46.984Z,97054.79
2024-01-06T17:35:15.137Z,97058.35
2024-01-06T17:37:43.212Z,97058.72
2024-01-06T17:40:11.647Z,97056.23
2024-01-06T17:42:39.659Z,97050.67
2024-01-06T17:45:08.030Z,97053.27
2024-01-06T17:47:38.679Z,97051.36
2024-01-06T17:50:07.180Z,97054.15
2024-01-06T17:52:35.209Z,97049.45
2024-01-06T17:55:03.788Z,97050.14
2024-01-06T17:57:35.978Z,97055.27
2024-01-06T18:00:05.142Z,97048.84
2024-01-06T18:02:36.190Z,97046.68
2024-01-06T18:05:06.651Z,97053.88
2024-01-06T18:07:34.775Z,97051.50
2024-01-06T18:10:04.581Z,97051.44
2024-01-06T18:12:34.036Z,97052.23
2024-01-06T18:15:02.466Z,97052.95
2024-01-06T18:17:30.478Z,97056.42
2024-01-06T18:19:58.457Z,97052.20
2024-01-06T18:22:26.428Z,97054.89
2024-01-06T18:24:54.336Z,97054.09
2024-01-06T18:27:22.289Z,97058.33
2024-01-06T18:29:50.708Z,97056.02
2024-01-06T18:32:18.772Z,97055.40
2024-01-06T18:34:47.927Z,97056.23
2024-01-06T18:37:16.117Z,97058.80
2024-01-06T18:39:45.086Z,97053.30
2024-01-06T18:42:15.350Z,97052.22
2024-01-06T18:44:43.532Z,97057.41
2024-01-06T18:47:12.973Z,97056.00
2024-01-06T18:49:41.208Z,97053.75
2024-01-06T18:52:09.331Z,97052.41
2024-01-06T18:54:42.288Z,97055.59
2024-01-06T18:57:15.161Z,97056.27
2024-01-06T18:59:43.202Z,97060.38
2024-01-06T19:02:13.028Z,97059.46
2024-01-06T19:04:41.173Z,97059.60
2024-01-06T19:07:09.296Z,97058.00
2024-01-06T19:09:38.241Z,97056.99
2024-01-06T19:12:07.079Z,97059.59
2024-01-06T19:14:39.209Z,97062.13
2024-01-06T19:17:07.514Z,97065.06
2024-01-06T19:19:40.582Z,97063.83
2024-01-06T19:22:08.938Z,97067.25
2024-01-06T19:24:43.086Z,97067.96
2024-01-06T19:27:12.746Z,97067.89
2024-01-06T19:29:44.433Z,97069.91
2024-01-06T19:32:13.345Z,97073.41
2024-01-06T19:34:42.638Z,97076.77
2024-01-06T19:37:11.198Z,97078.91
2024-01-06T19:39:39.464Z,97077.70
2024-01-06T19:42:08.235Z,97078.31
2024-01-06T19:44:36.509Z,97079.91
2024-01-06T19:47:04.926Z,97081.37
2024-01-06T19:49:33.676Z,97080.42
2024-01-06T19:52:01.836Z,97076.38
2024-01-06T19:54:33.471Z,97083.69
2024-01-06T19:57:01.789Z,97082.77
2024-01-06T19:59:29.979Z,97082.80
2024-01-06T20:01:57.866Z,97082.13
2024-01-06T20:04:27.258Z,97079.94
2024-01-06T20:06:55.615Z,97083.35
2024-01-06T20:09:23.732Z,97083.23
2024-01-06T20:11:51.661Z,97083.28
2024-01-06T20:14:19.871Z,97082.65
2024-01-06T20:16:47.925Z,97083.42
2024-01-06T20:19:16.046Z,97084.45
2024-01-06T20:21:44.011Z,97078.64
2024-01-06T20:24:12.161Z,97085.84
2024-01-06T20:26:40.106Z,97084.08
2024-01-06T20:29:07.994Z,97086.02
2024-01-06T20:31:36.065Z,97090.02
2024-01-06T20:34:04.705Z,97088.50
2024-01-06T20:36:32.730Z,97088.27
2024-01-06T20:39:00.630Z,97088.26
2024-01-06T20:41:28.604Z,97088.36
2024-01-06T20:43:56.573Z,97086.98
2024-01-06T20:46:25.394Z,97086.71
2024-01-06T20:48:54.207Z,97087.64
2024-01-06T20:51:22.145Z,97089.11
2024-01-06T20:53:52.779Z,97092.52
2024-01-06T20:56:20.718Z,97091.17
2024-01-06T20:58:49.880Z,97095.97
2024-01-06T21:01:17.922Z,97094.55
2024-01-06T21:03:46.198Z,97092.01
2024-01-06T21:06:15.734Z,97094.51
2024-01-06T21:08:43.627Z,97095.48
2024-01-06T21:11:11.614Z,97095.55
2024-01-06T21:13:39.480Z,97098.41
2024-01-06T21:16:07.535Z,97097.67
2024-01-06T21:18:38.973Z,97095.83
2024-01-06T21:21:07.151Z,97102.12
2024-01-06T21:23:40.288Z,97099.48
2024-01-06T21:26:13.270Z,97101.77
2024-01-06T21:28:41.249Z,97100.14
2024-01-06T21:31:10.440Z,97102.29
2024-01-06T21:33:38.684Z,97104.52
2024-01-06T21:36:07.999Z,97102.42
2024-01-06T21:38:36.092Z,97105.91
2024-01-06T21:41:04.406Z,97104.17
2024-01-06T21:43:32.756Z,97109.88
2024-01-06T21:46:00.717Z,97111.17
2024-01-06T21:48:31.862Z,97112.99
2024-01-06T21:50:59.964Z,97115.25
2024-01-06T21:53:28.064Z,97118.98
2024-01-06T21:55:56.009Z,97111.54
2024-01-06T21:58:24.228Z,97113.67
2024-01-06T22:00:55.544Z,97116.66
2024-01-06T22:03:24.027Z,97115.64
2024-01-06T22:05:52.134Z,97115.34
2024-01-06T22:08:20.155Z,97113.55
2024-01-06T22:10:48.018Z,97113.63
2024-01-06T22:13:16.093Z,97110.99
2024-01-06T22:15:44.171Z,97112.95
2024-01-06T22:18:12.662Z,97114.55
2024-01-06T22:20:40.643Z,97116.17
2024-01-06T22:23:08.477Z,97117.50
2024-01-06T22:25:36.306Z,97121.33
2024-01-06T22:28:04.975Z,97119.91
2024-01-06T22:30:33.912Z,97118.71
2024-01-06T22:33:02.570Z,97118.06
2024-01-06T22:35:30.484Z,97119.85
2024-01-06T22:37:58.507Z,97119.64
2024-01-06T22:40:26.352Z,97120.17
2024-01-06T22:42:54.286Z,97119.14
2024-01-06T22:45:24.156Z,97120.49
2024-01-06T22:47:52.256Z,97121.27
2024-01-06T22:50:20.293Z,97126.09
2024-01-06T22:52:48.125Z,97127.14
2024-01-06T22:55:17.494Z,97124.36
2024-01-06T22:57:45.532Z,97129.83
2024-01-06T23:00:23.205Z,97127.00
2024-01-06T23:02:51.142Z,97131.30
2024-01-06T23:05:19.009Z,97132.11
2024-01-06T23:07:46.879Z,97137.11
2024-01-06T23:10:14.899Z,97130.98
2024-01-06T23:12:43.031Z,97134.24
2024-01-06T23:15:11.671Z,97137.30
2024-01-06T23:17:39.666Z,97139.51
2024-01-06T23:20:08.628Z,97138.16
2024-01-06T23:22:36.476Z,97134.21
2024-01-06T23:25:05.120Z,97131.70
2024-01-06T23:27:33.156Z,97130.15
2024-01-06T23:30:01.015Z,97130.59
2024-01-06T23:32:29.002Z,97136.68
2024-01-06T23:34:56.973Z,97138.06
2024-01-06T23:37:24.857Z,97140.80
2024-01-06T23:39:52.722Z,97138.79
2024-01-06T23:42:22.979Z,97138.27
2024-01-06T23:44:55.454Z,97139.14
2024-01-06T23:47:23.348Z,97142.60
2024-01-06T23:49:51.338Z,97142.07
2024-01-06T23:52:20.946Z,97146.20
2024-01-06T23:54:48.840Z,97143.39
2024-01-06T23:57:16.718Z,97144.85
2024-01-06T23:59:44.761Z,97151.52
